createdAt,value
2023-03-14T00:01:57.755Z,3.35
2023-03-14T00:06:59.270Z,3.53
2023-03-14T00:12:00.832Z,2.92
2023-03-14T00:17:02.383Z,3.60
2023-03-14T00:22:03.870Z,3.35
2023-03-14T00:27:05.374Z,3.30
2023-03-14T00:32:06.844Z,4.47
2023-03-14T00:37:08.427Z,3.72
2023-03-14T00:42:10.055Z,3.20
2023-03-14T00:47:11.621Z,3.97
2023-03-14T00:52:13.584Z,2.90
2023-03-14T00:57:15.144Z,2.92
2023-03-14T01:02:16.702Z,3.28
2023-03-14T01:07:18.182Z,3.10
2023-03-14T01:12:19.734Z,2.85
2023-03-14T01:17:21.228Z,3.17
2023-03-14T01:22:22.968Z,2.42
2023-03-14T01:27:24.523Z,2.67
2023-03-14T01:32:26.506Z,3.85
2023-03-14T01:37:28.072Z,2.70
2023-03-14T01:42:29.632Z,3.10
2023-03-14T01:47:31.458Z,3.50
2023-03-14T01:52:42.939Z,3.20
2023-03-14T01:57:48.942Z,4.22
2023-03-14T02:02:56.373Z,4.75
2023-03-14T02:08:00.571Z,4.25
2023-03-14T02:13:05.484Z,5.05
2023-03-14T02:18:08.479Z,4.15
2023-03-14T02:23:09.953Z,6.03
2023-03-14T02:28:12.541Z,5.05
2023-03-14T02:33:19.915Z,5.95
2023-03-14T02:38:48.366Z,4.53
2023-03-14T02:43:50.011Z,5.40
2023-03-14T02:48:58.702Z,5.32
2023-03-14T02:54:00.287Z,4.55
2023-03-14T02:59:04.723Z,5.03
2023-03-14T03:04:06.263Z,5.03
2023-03-14T03:09:07.787Z,3.63
2023-03-14T03:14:09.261Z,4.28
2023-03-14T03:19:10.777Z,4.10
2023-03-14T03:24:12.325Z,4.22
2023-03-14T03:29:13.841Z,5.78
2023-03-14T03:34:15.902Z,3.45
2023-03-14T03:39:17.423Z,3.45
2023-03-14T03:44:18.963Z,3.67
2023-03-14T03:49:20.496Z,3.38
2023-03-14T03:54:22.030Z,3.90
2023-03-14T03:59:23.646Z,4.30
2023-03-14T04:04:25.221Z,3.22
2023-03-14T04:09:26.840Z,4.05
2023-03-14T04:14:28.515Z,3.60
2023-03-14T04:19:30.026Z,4.47
2023-03-14T04:24:31.544Z,3.40
2023-03-14T04:29:33.004Z,3.60
2023-03-14T04:34:34.469Z,4.15
2023-03-14T04:39:35.931Z,3.10
2023-03-14T04:44:37.437Z,4.20
2023-03-14T04:49:38.948Z,3.47
2023-03-14T04:54:40.448Z,3.70
2023-03-14T04:59:41.987Z,3.47
2023-03-14T05:04:43.471Z,3.28
2023-03-14T05:09:44.972Z,3.90
2023-03-14T05:14:46.468Z,3.60
2023-03-14T05:19:47.939Z,3.40
2023-03-14T05:24:49.461Z,2.85
2023-03-14T05:29:51.010Z,2.80
2023-03-14T05:34:52.772Z,2.40
2023-03-14T05:39:54.532Z,2.72
2023-03-14T05:44:56.039Z,1.80
2023-03-14T05:49:57.528Z,1.48
2023-03-14T05:54:59.067Z,1.65
2023-03-14T06:00:00.619Z,1.00
2023-03-14T06:05:02.064Z,1.25
2023-03-14T06:10:03.873Z,0.88
2023-03-14T06:15:05.918Z,0.90
2023-03-14T06:20:08.286Z,1.00
2023-03-14T06:25:09.973Z,1.00
2023-03-14T06:30:12.037Z,1.15
2023-03-14T06:35:13.628Z,2.22
2023-03-14T06:40:17.996Z,2.88
2023-03-14T06:45:19.803Z,2.55
2023-03-14T06:50:23.168Z,1.95
2023-03-14T06:55:24.796Z,2.03
2023-03-14T07:00:26.298Z,1.65
2023-03-14T07:05:27.894Z,2.08
2023-03-14T07:10:29.531Z,1.15
2023-03-14T07:15:31.591Z,1.10
2023-03-14T07:20:33.349Z,1.00
2023-03-14T07:25:34.917Z,1.10
2023-03-14T07:30:36.450Z,1.98
2023-03-14T07:35:38.383Z,1.33
2023-03-14T07:40:39.924Z,1.10
2023-03-14T07:45:43.245Z,1.92
2023-03-14T07:50:45.339Z,2.08
2023-03-14T07:55:47.162Z,2.90
2023-03-14T08:00:49.038Z,2.10
2023-03-14T08:05:51.507Z,2.80
2023-03-14T08:10:53.050Z,2.80
2023-03-14T08:15:54.616Z,2.80
2023-03-14T08:20:56.205Z,3.30
2023-03-14T08:25:57.750Z,3.15
2023-03-14T08:30:59.986Z,2.53
2023-03-14T08:36:02.233Z,4.13
2023-03-14T08:41:04.820Z,3.17
2023-03-14T08:46:06.748Z,3.25
2023-03-14T08:51:11.771Z,3.40
2023-03-14T08:56:13.284Z,4.20
2023-03-14T09:01:14.899Z,3.55
2023-03-14T09:06:18.933Z,3.30
2023-03-14T09:11:20.628Z,4.32
2023-03-14T09:16:22.369Z,2.90
2023-03-14T09:21:23.996Z,4.68
2023-03-14T09:26:25.504Z,3.45
2023-03-14T09:31:27.032Z,3.63
2023-03-14T09:36:28.875Z,3.50
2023-03-14T09:41:34.078Z,4.13
2023-03-14T09:46:38.317Z,3.95
2023-03-14T09:51:40.713Z,4.60
2023-03-14T09:56:43.332Z,4.13
2023-03-14T10:01:44.914Z,3.72
2023-03-14T10:06:46.557Z,4.00
2023-03-14T10:11:48.119Z,4.20
2023-03-14T10:16:51.726Z,3.50
2023-03-14T10:21:57.723Z,3.60
2023-03-14T10:27:09.989Z,2.92
2023-03-14T10:32:20.800Z,2.55
2023-03-14T10:37:26.811Z,3.08
2023-03-14T10:42:34.791Z,2.70
2023-03-14T10:47:36.402Z,2.85
2023-03-14T10:53:01.496Z,2.97
2023-03-14T10:58:04.291Z,3.20
2023-03-14T11:03:15.431Z,2.67
2023-03-14T11:08:32.807Z,2.78
2023-03-14T11:13:48.152Z,2.33
2023-03-14T11:18:52.370Z,2.45
2023-03-14T11:24:02.568Z,1.90
2023-03-14T11:29:24.467Z,2.20
2023-03-14T11:34:34.643Z,1.75
2023-03-14T11:39:41.319Z,2.80
2023-03-14T11:44:47.104Z,1.95
2023-03-14T11:49:55.074Z,3.08
2023-03-14T11:55:03.837Z,2.63
2023-03-14T12:00:25.757Z,1.65
2023-03-14T12:05:47.610Z,1.70
2023-03-14T12:10:57.874Z,1.92
2023-03-14T12:16:04.323Z,1.90
2023-03-14T12:21:09.016Z,2.65
2023-03-14T12:26:15.673Z,1.90
2023-03-14T12:31:35.303Z,2.30
2023-03-14T12:36:49.561Z,1.75
2023-03-14T12:42:32.499Z,2.60
2023-03-14T12:47:39.912Z,2.50
2023-03-14T12:53:04.063Z,1.95
2023-03-14T12:58:25.793Z,1.67
2023-03-14T13:03:43.641Z,1.50
2023-03-14T13:08:46.250Z,1.80
2023-03-14T13:13:57.117Z,1.58
2023-03-14T13:19:04.965Z,1.85
2023-03-14T13:29:17.064Z,1.33
2023-03-14T13:34:19.290Z,1.50
2023-03-14T13:39:25.821Z,1.63
2023-03-14T13:44:36.826Z,1.60
2023-03-14T13:49:39.168Z,1.38
2023-03-14T13:54:40.748Z,1.83
2023-03-14T13:59:42.225Z,1.33
2023-03-14T14:04:43.785Z,1.50
2023-03-14T14:09:56.294Z,1.52
2023-03-14T14:15:08.604Z,1.80
2023-03-14T14:20:37.781Z,1.77
2023-03-14T14:25:39.871Z,2.28
2023-03-14T14:30:41.556Z,1.30
2023-03-14T14:35:43.337Z,2.10
2023-03-14T14:40:47.479Z,1.63
2023-03-14T14:45:51.690Z,2.08
2023-03-14T14:51:05.753Z,2.13
2023-03-14T14:56:26.099Z,1.77
2023-03-14T15:01:35.285Z,2.20
2023-03-14T15:06:36.849Z,2.45
2023-03-14T15:11:38.593Z,1.75
2023-03-14T15:16:40.978Z,1.67
2023-03-14T15:21:42.497Z,2.20
2023-03-14T15:26:45.352Z,1.80
2023-03-14T15:31:46.990Z,2.08
2023-03-14T15:36:49.624Z,1.42
2023-03-14T15:41:51.164Z,2.50
2023-03-14T15:46:52.676Z,2.00
2023-03-14T15:51:56.151Z,2.10
2023-03-14T15:56:58.947Z,2.28
2023-03-14T16:02:00.711Z,1.95
2023-03-14T16:07:02.235Z,1.65
2023-03-14T16:12:05.902Z,2.45
2023-03-14T16:17:11.699Z,1.27
2023-03-14T16:22:13.285Z,1.65
2023-03-14T16:27:14.795Z,1.30
2023-03-14T16:32:16.421Z,1.60
2023-03-14T16:37:18.081Z,1.77
2023-03-14T16:42:21.309Z,1.80
2023-03-14T16:47:22.837Z,2.05
2023-03-14T16:52:25.596Z,1.52
2023-03-14T16:57:27.122Z,1.60
2023-03-14T17:02:28.676Z,2.00
2023-03-14T17:07:30.163Z,1.80
2023-03-14T17:12:31.670Z,1.92
2023-03-14T17:17:33.199Z,2.15
2023-03-14T17:22:35.918Z,1.70
2023-03-14T17:27:37.466Z,2.05
2023-03-14T17:32:39.077Z,1.67
2023-03-14T17:37:41.332Z,2.25
2023-03-14T17:42:42.860Z,2.42
2023-03-14T17:47:44.848Z,1.92
2023-03-14T17:52:46.336Z,2.03
2023-03-14T17:57:48.909Z,2.30
2023-03-14T18:08:16.005Z,1.83
2023-03-14T18:13:17.853Z,2.25
2023-03-14T18:18:20.045Z,2.00
2023-03-14T18:23:22.254Z,2.10
2023-03-14T18:28:23.810Z,2.00
2023-03-14T18:33:25.347Z,2.22
2023-03-14T18:38:26.943Z,2.10
2023-03-14T18:43:28.477Z,2.25
2023-03-14T18:48:30.702Z,1.90
2023-03-14T18:53:32.739Z,1.92
2023-03-14T18:58:34.794Z,2.67
2023-03-14T19:03:37.603Z,2.70
2023-03-14T19:08:42.057Z,2.15
2023-03-14T19:13:43.927Z,3.28
2023-03-14T19:18:45.413Z,2.45
2023-03-14T19:23:49.053Z,2.30
2023-03-14T19:28:52.853Z,2.30
2023-03-14T19:33:55.695Z,2.92
2023-03-14T19:38:57.430Z,2.35
2023-03-14T19:43:59.789Z,2.17
2023-03-14T19:49:01.355Z,2.28
2023-03-14T19:54:04.918Z,2.00
2023-03-14T19:59:06.507Z,2.42
2023-03-14T20:04:08.018Z,1.35
2023-03-14T20:09:10.745Z,1.48
2023-03-14T20:14:14.583Z,1.85
2023-03-14T20:19:16.352Z,1.45
2023-03-14T20:24:18.131Z,1.50
2023-03-14T20:29:20.050Z,1.30
2023-03-14T20:34:21.610Z,1.50
2023-03-14T20:39:24.599Z,1.27
2023-03-14T20:44:26.184Z,1.60
2023-03-14T20:49:27.654Z,1.70
2023-03-14T20:54:29.143Z,1.73
2023-03-14T20:59:30.746Z,1.67
2023-03-14T21:04:32.365Z,1.70
2023-03-14T21:09:33.936Z,1.75
2023-03-14T21:14:35.516Z,1.90
2023-03-14T21:19:37.020Z,1.83
2023-03-14T21:24:38.497Z,1.92
2023-03-14T21:29:40.068Z,1.90
2023-03-14T21:34:41.583Z,1.88
2023-03-14T21:39:43.076Z,1.45
2023-03-14T21:44:48.639Z,2.17
2023-03-14T21:49:51.375Z,1.55
2023-03-14T21:54:52.849Z,1.38
2023-03-14T21:59:54.355Z,1.88
2023-03-14T22:04:55.814Z,1.65
2023-03-14T22:09:57.306Z,2.25
2023-03-14T22:14:58.834Z,1.65
2023-03-14T22:20:00.553Z,1.80
2023-03-14T22:25:02.127Z,2.17
2023-03-14T22:30:04.104Z,2.17
2023-03-14T22:35:05.957Z,1.83
2023-03-14T22:40:08.098Z,1.27
2023-03-14T22:45:09.907Z,1.08
2023-03-14T22:50:11.637Z,1.10
2023-03-14T22:55:13.172Z,1.27
2023-03-14T23:00:16.805Z,1.10
2023-03-14T23:05:18.349Z,1.67
2023-03-14T23:10:20.252Z,1.98
2023-03-14T23:15:21.728Z,1.75
2023-03-14T23:20:23.832Z,2.13
2023-03-14T23:25:25.381Z,1.73
2023-03-14T23:30:26.910Z,1.10
2023-03-14T23:35:28.409Z,0.68
2023-03-14T23:40:29.909Z,0.90
2023-03-14T23:45:31.374Z,1.00
2023-03-14T23:50:35.486Z,1.23
2023-03-14T23:55:37.052Z,1.30
